sensor_id;sensor_type;location;lat;lon;timestamp;temperature;humidity
54558;DHT22;40452;50.080;20.040;2023-05-08T03:06:12;22.00;43.20
54558;DHT22;40452;50.080;20.040;2023-05-08T03:08:39;22.00;43.20
54558;DHT22;40452;50.080;20.040;2023-05-08T03:11:20;22.00;42.70
54558;DHT22;40452;50.080;20.040;2023-05-08T03:13:47;22.00;42.60
54558;DHT22;40452;50.080;20.040;2023-05-08T03:16:19;22.10;43.30
54558;DHT22;40452;50.080;20.040;2023-05-08T03:18:52;22.10;43.30
54558;DHT22;40452;50.080;20.040;2023-05-08T03:21:20;22.10;43.40
54558;DHT22;40452;50.080;20.040;2023-05-08T03:23:47;22.10;43.40
54558;DHT22;40452;50.080;20.040;2023-05-08T03:26:16;22.10;43.50
54558;DHT22;40452;50.080;20.040;2023-05-08T03:28:49;22.20;43.50
54558;DHT22;40452;50.080;20.040;2023-05-08T03:31:17;22.10;43.60
54558;DHT22;40452;50.080;20.040;2023-05-08T03:33:46;22.20;42.90
54558;DHT22;40452;50.080;20.040;2023-05-08T03:36:12;22.10;42.90
54558;DHT22;40452;50.080;20.040;2023-05-08T03:38:38;22.10;42.30
54558;DHT22;40452;50.080;20.040;2023-05-08T03:41:05;22.10;42.60
54558;DHT22;40452;50.080;20.040;2023-05-08T03:43:32;22.10;42.80
54558;DHT22;40452;50.080;20.040;2023-05-08T03:45:58;22.10;42.60
54558;DHT22;40452;50.080;20.040;2023-05-08T03:48:25;22.10;42.60
54558;DHT22;40452;50.080;20.040;2023-05-08T03:50:52;22.10;42.80
54558;DHT22;40452;50.080;20.040;2023-05-08T03:53:18;22.10;42.80
54558;DHT22;40452;50.080;20.040;2023-05-08T03:55:43;22.10;42.70
54558;DHT22;40452;50.080;20.040;2023-05-08T03:58:14;22.10;42.70
54558;DHT22;40452;50.080;20.040;2023-05-08T04:03:54;22.10;42.60
54558;DHT22;40452;50.080;20.040;2023-05-08T04:09:42;22.10;42.60
54558;DHT22;40452;50.080;20.040;2023-05-08T04:12:14;22.10;42.60
54558;DHT22;40452;50.080;20.040;2023-05-08T04:14:47;21.90;42.50
54558;DHT22;40452;50.080;20.040;2023-05-08T04:17:16;22.10;42.50
54558;DHT22;40452;50.080;20.040;2023-05-08T04:19:51;22.00;42.50
54558;DHT22;40452;50.080;20.040;2023-05-08T04:22:21;22.00;42.60
54558;DHT22;40452;50.080;20.040;2023-05-08T04:24:49;22.00;42.70
54558;DHT22;40452;50.080;20.040;2023-05-08T04:27:15;22.00;42.70
54558;DHT22;40452;50.080;20.040;2023-05-08T04:29:41;22.00;42.80
54558;DHT22;40452;50.080;20.040;2023-05-08T04:32:07;22.00;42.80
54558;DHT22;40452;50.080;20.040;2023-05-08T04:34:35;22.00;42.90
54558;DHT22;40452;50.080;20.040;2023-05-08T04:37:00;22.00;43.00
54558;DHT22;40452;50.080;20.040;2023-05-08T04:39:26;22.00;43.00
54558;DHT22;40452;50.080;20.040;2023-05-08T04:41:52;22.00;43.00
54558;DHT22;40452;50.080;20.040;2023-05-08T04:44:20;22.00;43.10
54558;DHT22;40452;50.080;20.040;2023-05-08T04:46:45;22.00;43.10
54558;DHT22;40452;50.080;20.040;2023-05-08T04:49:11;22.00;43.20
54558;DHT22;40452;50.080;20.040;2023-05-08T04:51:36;22.00;43.40
54558;DHT22;40452;50.080;20.040;2023-05-08T04:54:02;22.10;43.50
54558;DHT22;40452;50.080;20.040;2023-05-08T04:56:27;22.10;43.40
54558;DHT22;40452;50.080;20.040;2023-05-08T04:58:53;22.00;43.40
54558;DHT22;40452;50.080;20.040;2023-05-08T05:01:18;22.00;43.40
54558;DHT22;40452;50.080;20.040;2023-05-08T05:03:44;22.10;43.40
54558;DHT22;40452;50.080;20.040;2023-05-08T05:06:09;20.20;37.00
54558;DHT22;40452;50.080;20.040;2023-05-08T05:08:35;19.40;37.80
54558;DHT22;40452;50.080;20.040;2023-05-08T05:11:00;18.70;37.50
54558;DHT22;40452;50.080;20.040;2023-05-08T05:13:26;18.20;38.20
54558;DHT22;40452;50.080;20.040;2023-05-08T05:15:51;18.00;38.90
54558;DHT22;40452;50.080;20.040;2023-05-08T05:18:19;17.50;39.30
54558;DHT22;40452;50.080;20.040;2023-05-08T05:20:45;17.20;40.20
54558;DHT22;40452;50.080;20.040;2023-05-08T05:23:10;17.10;40.60
54558;DHT22;40452;50.080;20.040;2023-05-08T05:25:36;16.70;41.10
54558;DHT22;40452;50.080;20.040;2023-05-08T05:28:02;16.50;44.10
54558;DHT22;40452;50.080;20.040;2023-05-08T05:30:27;16.20;43.50
54558;DHT22;40452;50.080;20.040;2023-05-08T05:32:53;15.60;44.10
54558;DHT22;40452;50.080;20.040;2023-05-08T05:35:18;15.80;45.60
54558;DHT22;40452;50.080;20.040;2023-05-08T14:59:44;19.70;41.80
54558;DHT22;40452;50.080;20.040;2023-05-08T15:02:09;19.80;41.70
54558;DHT22;40452;50.080;20.040;2023-05-08T15:04:35;19.90;41.90
54558;DHT22;40452;50.080;20.040;2023-05-08T15:07:05;19.90;41.80
54558;DHT22;40452;50.080;20.040;2023-05-08T15:09:31;19.90;41.80
54558;DHT22;40452;50.080;20.040;2023-05-08T15:11:56;20.00;41.70
54558;DHT22;40452;50.080;20.040;2023-05-08T15:14:22;20.00;41.80
54558;DHT22;40452;50.080;20.040;2023-05-08T15:16:48;20.00;41.70
54558;DHT22;40452;50.080;20.040;2023-05-08T15:19:14;20.10;41.70
54558;DHT22;40452;50.080;20.040;2023-05-08T15:21:41;20.10;41.70
54558;DHT22;40452;50.080;20.040;2023-05-08T15:24:07;20.10;41.80
54558;DHT22;40452;50.080;20.040;2023-05-08T15:26:33;20.20;41.90
54558;DHT22;40452;50.080;20.040;2023-05-08T15:28:59;20.20;42.00
54558;DHT22;40452;50.080;20.040;2023-05-08T15:31:25;20.30;42.10
54558;DHT22;40452;50.080;20.040;2023-05-08T15:33:51;20.40;42.20
54558;DHT22;40452;50.080;20.040;2023-05-08T15:36:16;20.40;42.00
54558;DHT22;40452;50.080;20.040;2023-05-08T15:38:42;20.40;42.10
54558;DHT22;40452;50.080;20.040;2023-05-08T15:41:08;20.40;42.20
54558;DHT22;40452;50.080;20.040;2023-05-08T15:43:39;20.40;42.20
54558;DHT22;40452;50.080;20.040;2023-05-08T15:46:05;20.40;42.20
54558;DHT22;40452;50.080;20.040;2023-05-08T15:48:30;20.50;42.40
54558;DHT22;40452;50.080;20.040;2023-05-08T15:50:56;20.50;42.50
54558;DHT22;40452;50.080;20.040;2023-05-08T15:53:21;20.50;42.50
54558;DHT22;40452;50.080;20.040;2023-05-08T15:55:47;20.50;42.50
54558;DHT22;40452;50.080;20.040;2023-05-08T15:58:13;20.50;42.50
54558;DHT22;40452;50.080;20.040;2023-05-08T16:00:38;20.60;42.60
54558;DHT22;40452;50.080;20.040;2023-05-08T16:03:04;20.60;42.60
54558;DHT22;40452;50.080;20.040;2023-05-08T16:05:29;20.60;42.50
54558;DHT22;40452;50.080;20.040;2023-05-08T16:07:55;20.60;42.50
54558;DHT22;40452;50.080;20.040;2023-05-08T16:10:20;20.60;42.50
54558;DHT22;40452;50.080;20.040;2023-05-08T16:12:46;20.70;42.50
54558;DHT22;40452;50.080;20.040;2023-05-08T16:15:11;20.70;42.40
54558;DHT22;40452;50.080;20.040;2023-05-08T16:17:37;20.70;42.50
54558;DHT22;40452;50.080;20.040;2023-05-08T16:20:03;20.70;42.60
54558;DHT22;40452;50.080;20.040;2023-05-08T16:22:29;20.70;42.60
54558;DHT22;40452;50.080;20.040;2023-05-08T16:24:55;20.80;42.70
54558;DHT22;40452;50.080;20.040;2023-05-08T16:27:21;20.80;42.70
54558;DHT22;40452;50.080;20.040;2023-05-08T16:29:46;20.80;42.80
54558;DHT22;40452;50.080;20.040;2023-05-08T16:32:12;20.80;43.20
54558;DHT22;40452;50.080;20.040;2023-05-08T16:34:37;20.90;43.20
54558;DHT22;40452;50.080;20.040;2023-05-08T16:37:03;20.80;43.20
54558;DHT22;40452;50.080;20.040;2023-05-08T16:39:29;20.90;43.20
54558;DHT22;40452;50.080;20.040;2023-05-08T16:41:54;20.90;43.30
54558;DHT22;40452;50.080;20.040;2023-05-08T16:44:20;20.90;43.20
54558;DHT22;40452;50.080;20.040;2023-05-08T16:46:45;20.90;43.20
54558;DHT22;40452;50.080;20.040;2023-05-08T16:49:11;20.90;43.10
54558;DHT22;40452;50.080;20.040;2023-05-08T16:51:37;20.90;43.20
54558;DHT22;40452;50.080;20.040;2023-05-08T16:54:03;21.00;43.40
54558;DHT22;40452;50.080;20.040;2023-05-08T16:56:28;21.10;42.80
54558;DHT22;40452;50.080;20.040;2023-05-08T16:58:54;21.20;42.70
54558;DHT22;40452;50.080;20.040;2023-05-08T17:01:19;21.20;42.60
54558;DHT22;40452;50.080;20.040;2023-05-08T17:03:45;21.20;42.80
54558;DHT22;40452;50.080;20.040;2023-05-08T17:06:10;21.10;42.90
54558;DHT22;40452;50.080;20.040;2023-05-08T17:08:36;21.10;43.10
54558;DHT22;40452;50.080;20.040;2023-05-08T17:11:01;21.10;43.10
54558;DHT22;40452;50.080;20.040;2023-05-08T17:13:27;21.10;43.10
54558;DHT22;40452;50.080;20.040;2023-05-08T17:15:52;21.20;43.20
54558;DHT22;40452;50.080;20.040;2023-05-08T17:18:18;21.20;43.20
54558;DHT22;40452;50.080;20.040;2023-05-08T17:20:44;21.10;43.10
54558;DHT22;40452;50.080;20.040;2023-05-08T17:23:09;21.10;43.10
54558;DHT22;40452;50.080;20.040;2023-05-08T17:25:35;21.20;43.20
54558;DHT22;40452;50.080;20.040;2023-05-08T17:28:01;21.20;43.20
54558;DHT22;40452;50.080;20.040;2023-05-08T17:30:27;21.20;43.30
54558;DHT22;40452;50.080;20.040;2023-05-08T17:32:54;21.20;43.20
54558;DHT22;40452;50.080;20.040;2023-05-08T17:35:20;21.20;43.00
54558;DHT22;40452;50.080;20.040;2023-05-08T17:37:45;21.30;43.10
54558;DHT22;40452;50.080;20.040;2023-05-08T17:40:11;21.30;43.10
54558;DHT22;40452;50.080;20.040;2023-05-08T17:42:37;21.30;43.10
54558;DHT22;40452;50.080;20.040;2023-05-08T17:45:02;21.30;43.10
54558;DHT22;40452;50.080;20.040;2023-05-08T17:47:29;21.40;43.10
54558;DHT22;40452;50.080;20.040;2023-05-08T17:49:55;21.40;43.10
54558;DHT22;40452;50.080;20.040;2023-05-08T17:52:20;21.40;43.20
54558;DHT22;40452;50.080;20.040;2023-05-08T17:54:46;21.40;43.20
54558;DHT22;40452;50.080;20.040;2023-05-08T17:57:12;21.40;43.30
54558;DHT22;40452;50.080;20.040;2023-05-08T17:59:37;21.40;43.30
54558;DHT22;40452;50.080;20.040;2023-05-08T18:02:02;21.40;43.30
54558;DHT22;40452;50.080;20.040;2023-05-08T18:04:28;21.50;43.30
54558;DHT22;40452;50.080;20.040;2023-05-08T18:06:53;21.50;43.30
54558;DHT22;40452;50.080;20.040;2023-05-08T18:09:19;21.50;43.40
54558;DHT22;40452;50.080;20.040;2023-05-08T18:11:45;21.50;43.40
54558;DHT22;40452;50.080;20.040;2023-05-08T18:14:11;22.20;44.00
54558;DHT22;40452;50.080;20.040;2023-05-08T18:16:36;21.50;43.50
54558;DHT22;40452;50.080;20.040;2023-05-08T18:19:02;21.50;43.50
54558;DHT22;40452;50.080;20.040;2023-05-08T18:21:27;21.50;43.50
54558;DHT22;40452;50.080;20.040;2023-05-08T18:23:53;21.50;43.50
54558;DHT22;40452;50.080;20.040;2023-05-08T18:26:18;21.50;43.50
54558;DHT22;40452;50.080;20.040;2023-05-08T18:28:44;21.50;43.50
54558;DHT22;40452;50.080;20.040;2023-05-08T18:31:10;21.50;43.50
54558;DHT22;40452;50.080;20.040;2023-05-08T18:33:36;21.60;43.60
54558;DHT22;40452;50.080;20.040;2023-05-08T18:36:02;21.60;43.60
54558;DHT22;40452;50.080;20.040;2023-05-08T18:38:29;21.60;43.60
54558;DHT22;40452;50.080;20.040;2023-05-08T18:40:56;21.60;42.90
54558;DHT22;40452;50.080;20.040;2023-05-08T18:43:21;21.60;43.50
54558;DHT22;40452;50.080;20.040;2023-05-08T18:45:47;21.60;43.60
54558;DHT22;40452;50.080;20.040;2023-05-08T18:48:12;21.60;43.60
54558;DHT22;40452;50.080;20.040;2023-05-08T18:50:38;21.60;43.60
54558;DHT22;40452;50.080;20.040;2023-05-08T18:53:03;21.60;43.70
54558;DHT22;40452;50.080;20.040;2023-05-08T18:55:30;21.60;43.70
54558;DHT22;40452;50.080;20.040;2023-05-08T18:57:56;21.60;43.80
54558;DHT22;40452;50.080;20.040;2023-05-08T19:00:21;21.60;43.80
54558;DHT22;40452;50.080;20.040;2023-05-08T19:02:47;21.60;43.90
54558;DHT22;40452;50.080;20.040;2023-05-08T19:05:12;21.60;43.90
54558;DHT22;40452;50.080;20.040;2023-05-08T19:07:38;21.60;44.00
54558;DHT22;40452;50.080;20.040;2023-05-08T19:10:04;21.60;43.90
54558;DHT22;40452;50.080;20.040;2023-05-08T19:12:30;21.60;43.90
54558;DHT22;40452;50.080;20.040;2023-05-08T19:14:56;21.60;44.00
54558;DHT22;40452;50.080;20.040;2023-05-08T19:17:21;21.60;44.20
54558;DHT22;40452;50.080;20.040;2023-05-08T19:19:48;21.60;44.10
54558;DHT22;40452;50.080;20.040;2023-05-08T19:22:15;21.60;44.10
54558;DHT22;40452;50.080;20.040;2023-05-08T19:24:41;21.60;44.10
54558;DHT22;40452;50.080;20.040;2023-05-08T19:27:06;21.70;44.20
54558;DHT22;40452;50.080;20.040;2023-05-08T19:29:32;21.60;44.20
54558;DHT22;40452;50.080;20.040;2023-05-08T19:31:57;21.50;44.10
54558;DHT22;40452;50.080;20.040;2023-05-08T19:34:23;21.60;44.20
54558;DHT22;40452;50.080;20.040;2023-05-08T19:36:49;21.50;44.20
54558;DHT22;40452;50.080;20.040;2023-05-08T19:39:15;21.20;44.20
54558;DHT22;40452;50.080;20.040;2023-05-08T19:41:42;21.60;44.40
54558;DHT22;40452;50.080;20.040;2023-05-08T19:44:08;21.60;44.40
54558;DHT22;40452;50.080;20.040;2023-05-08T19:46:34;21.60;44.40
54558;DHT22;40452;50.080;20.040;2023-05-08T19:49:00;21.60;44.40
54558;DHT22;40452;50.080;20.040;2023-05-08T19:51:25;21.60;44.50
54558;DHT22;40452;50.080;20.040;2023-05-08T19:53:51;21.50;44.40
54558;DHT22;40452;50.080;20.040;2023-05-08T19:56:16;21.50;44.50
54558;DHT22;40452;50.080;20.040;2023-05-08T19:58:42;21.60;44.60
54558;DHT22;40452;50.080;20.040;2023-05-08T20:01:07;21.60;44.60
54558;DHT22;40452;50.080;20.040;2023-05-08T20:03:33;21.50;44.50
54558;DHT22;40452;50.080;20.040;2023-05-08T20:05:58;21.50;44.60
54558;DHT22;40452;50.080;20.040;2023-05-08T20:08:24;21.50;44.60
54558;DHT22;40452;50.080;20.040;2023-05-08T20:10:49;21.50;44.60
54558;DHT22;40452;50.080;20.040;2023-05-08T20:13:16;21.50;44.40
54558;DHT22;40452;50.080;20.040;2023-05-08T20:15:41;21.60;44.10
54558;DHT22;40452;50.080;20.040;2023-05-08T20:18:07;21.60;44.20
54558;DHT22;40452;50.080;20.040;2023-05-08T20:20:32;21.50;44.20
54558;DHT22;40452;50.080;20.040;2023-05-08T20:22:59;21.50;44.10
54558;DHT22;40452;50.080;20.040;2023-05-08T20:25:24;21.50;44.20
54558;DHT22;40452;50.080;20.040;2023-05-08T20:27:50;21.50;44.30
54558;DHT22;40452;50.080;20.040;2023-05-08T20:30:15;21.50;44.40
54558;DHT22;40452;50.080;20.040;2023-05-08T20:32:41;21.50;44.40
54558;DHT22;40452;50.080;20.040;2023-05-08T20:35:07;21.50;44.40
54558;DHT22;40452;50.080;20.040;2023-05-08T20:37:33;21.50;45.10
54558;DHT22;40452;50.080;20.040;2023-05-08T20:39:58;21.50;44.40
54558;DHT22;40452;50.080;20.040;2023-05-08T20:42:24;21.50;44.60
54558;DHT22;40452;50.080;20.040;2023-05-08T20:44:49;21.50;44.50
54558;DHT22;40452;50.080;20.040;2023-05-08T20:47:15;21.50;44.50
54558;DHT22;40452;50.080;20.040;2023-05-08T20:49:40;21.50;44.40
54558;DHT22;40452;50.080;20.040;2023-05-08T20:52:06;21.50;44.40
54558;DHT22;40452;50.080;20.040;2023-05-08T20:54:31;21.50;44.60
54558;DHT22;40452;50.080;20.040;2023-05-08T20:56:57;21.50;44.60
54558;DHT22;40452;50.080;20.040;2023-05-08T20:59:23;21.50;44.60
54558;DHT22;40452;50.080;20.040;2023-05-08T21:01:49;21.50;44.60
54558;DHT22;40452;50.080;20.040;2023-05-08T21:04:14;21.50;44.60
54558;DHT22;40452;50.080;20.040;2023-05-08T21:06:40;21.50;44.60
54558;DHT22;40452;50.080;20.040;2023-05-08T21:09:06;21.50;44.70
54558;DHT22;40452;50.080;20.040;2023-05-08T21:11:31;21.50;44.70
54558;DHT22;40452;50.080;20.040;2023-05-08T21:13:57;21.50;44.70
54558;DHT22;40452;50.080;20.040;2023-05-08T21:16:22;21.50;44.70
54558;DHT22;40452;50.080;20.040;2023-05-08T21:18:48;21.50;44.70
54558;DHT22;40452;50.080;20.040;2023-05-08T21:21:17;21.50;44.80
54558;DHT22;40452;50.080;20.040;2023-05-08T21:23:43;21.50;44.80
54558;DHT22;40452;50.080;20.040;2023-05-08T21:26:09;21.50;44.80
54558;DHT22;40452;50.080;20.040;2023-05-08T21:28:34;21.50;44.80
54558;DHT22;40452;50.080;20.040;2023-05-08T21:31:00;21.50;44.90
54558;DHT22;40452;50.080;20.040;2023-05-08T21:33:25;21.50;45.00
54558;DHT22;40452;50.080;20.040;2023-05-08T21:35:51;21.50;45.00
54558;DHT22;40452;50.080;20.040;2023-05-08T21:38:16;21.50;44.90
